Aeroporto :
LOGIN :

Iscrizione | Disclaimer

   EN    FR    IT 

 










Sommario :    VFR   VFR Marginale   IFR   IFR Intensivo   IFR Molto Intensivo
Visibilità : 
Base nubi : 
>= 8 km
>= 3000ft
5 / 8 km
1000 / 3000 ft
1500m / 5 km
500 / 1000 ft
800 / 1500m
200 / 500 ft
< 800m
< 200 ft
Simboli :   Temporali  Nebbia  Neve Forte  Precipitazioni Forti  Vento > 20 kt
SIGMETs :   Varie  Temporali  Ghiacco  Turbolenza  Onda orograficha  Ceneri Vulcaniche






- Altitudine del aeroporto : 362 ft
- Codice IATA : WAW


EPWA - Warsaw Okecie

ULTIMO METAR :
  • 200400Z 10008KT 7000 BKN003 05/05 Q1022 BECMG 3000 BR

METARs OBSOLETI :
  • 200330Z 10010KT 9999 SCT005 05/04 Q1022 BECMG 1500 BR BKN003
  • 200300Z 10008KT CAVOK 05/04 Q1022 BECMG 3000 BR BKN005
  • 200230Z 10008KT CAVOK 05/04 Q1022 BECMG 3000 BR BKN005
  • 200200Z 10008KT CAVOK 05/04 Q1022 BECMG 3000 BR BKN005
  • 200130Z 10009KT CAVOK 05/04 Q1022 BECMG 3000 BR BKN005

TAF TAF EPWA
Valido dal 20 a 03 ore il 21 a 03 ore UTC


200230Z 2003/2103 11008KT CAVOK
BECMG 2003/2005 1500 BR BKN004
TEMPO 2003/2009 0400 FG OVC001
BECMG 2011/2014 4000 BR BKN008
TEMPO 2015/2024 8000 SCT009 BKN015



MetMap, La meteo Aeronautica in un colpo d'occhio ! - Copyright ORBIFLY Dicembre 2007 - Disclaimer

ORBIFLY MET'MAP TEAM :

Programmazione e sviluppo : Alexandra Zaïnal
Concezione e sviluppo : Baudouin d'Aumeries
Co-Programmazione e sviluppo : Marc-Olivier Méhu
Supporto tecnico e logistico : Manuel Goepfert
Aiuto per la traduzione : Arnaldo La Scala

Contatto : metmap@orbifly.com




FONTI E CREDITI :

   NOAA